sensor_id;sensor_type;location;lat;lon;timestamp;temperature;humidity
45549;DHT22;31270;48.328;10.096;2022-08-07T00:01:54;15.20;99.90
45549;DHT22;31270;48.328;10.096;2022-08-07T00:04:19;15.10;99.90
45549;DHT22;31270;48.328;10.096;2022-08-07T00:06:45;15.10;99.90
45549;DHT22;31270;48.328;10.096;2022-08-07T00:09:11;15.10;99.90
45549;DHT22;31270;48.328;10.096;2022-08-07T00:11:36;15.00;99.90
45549;DHT22;31270;48.328;10.096;2022-08-07T00:14:02;15.00;99.90
45549;DHT22;31270;48.328;10.096;2022-08-07T00:16:28;15.10;99.90
45549;DHT22;31270;48.328;10.096;2022-08-07T00:18:53;15.00;99.90
45549;DHT22;31270;48.328;10.096;2022-08-07T00:21:19;14.90;99.90
45549;DHT22;31270;48.328;10.096;2022-08-07T00:23:46;15.00;99.90
45549;DHT22;31270;48.328;10.096;2022-08-07T00:26:11;15.00;99.90
45549;DHT22;31270;48.328;10.096;2022-08-07T00:28:37;14.90;99.90
45549;DHT22;31270;48.328;10.096;2022-08-07T00:31:06;14.90;99.90
45549;DHT22;31270;48.328;10.096;2022-08-07T00:33:34;14.90;99.90
45549;DHT22;31270;48.328;10.096;2022-08-07T00:36:00;14.90;99.90
45549;DHT22;31270;48.328;10.096;2022-08-07T00:38:25;14.90;99.90
45549;DHT22;31270;48.328;10.096;2022-08-07T00:40:51;14.90;99.90
45549;DHT22;31270;48.328;10.096;2022-08-07T00:43:17;14.80;99.90
45549;DHT22;31270;48.328;10.096;2022-08-07T00:45:43;14.70;99.90
45549;DHT22;31270;48.328;10.096;2022-08-07T00:48:09;14.80;99.90
45549;DHT22;31270;48.328;10.096;2022-08-07T00:50:35;14.70;99.90
45549;DHT22;31270;48.328;10.096;2022-08-07T00:53:01;14.70;99.90
45549;DHT22;31270;48.328;10.096;2022-08-07T00:55:27;14.70;99.90
45549;DHT22;31270;48.328;10.096;2022-08-07T00:57:54;14.70;99.90
45549;DHT22;31270;48.328;10.096;2022-08-07T01:00:19;14.70;99.90
45549;DHT22;31270;48.328;10.096;2022-08-07T01:02:45;14.70;99.90
45549;DHT22;31270;48.328;10.096;2022-08-07T01:05:11;14.60;99.90
45549;DHT22;31270;48.328;10.096;2022-08-07T01:07:38;14.50;99.90
45549;DHT22;31270;48.328;10.096;2022-08-07T01:10:06;14.50;99.90
45549;DHT22;31270;48.328;10.096;2022-08-07T01:12:31;14.50;99.90
45549;DHT22;31270;48.328;10.096;2022-08-07T01:14:58;14.40;99.90
45549;DHT22;31270;48.328;10.096;2022-08-07T01:17:25;14.30;99.90
45549;DHT22;31270;48.328;10.096;2022-08-07T01:19:53;14.20;99.90
45549;DHT22;31270;48.328;10.096;2022-08-07T01:22:21;14.10;99.90
45549;DHT22;31270;48.328;10.096;2022-08-07T01:24:47;14.00;99.90
45549;DHT22;31270;48.328;10.096;2022-08-07T01:27:13;13.90;99.90
45549;DHT22;31270;48.328;10.096;2022-08-07T01:29:39;13.90;99.90
45549;DHT22;31270;48.328;10.096;2022-08-07T01:32:05;13.90;99.90
45549;DHT22;31270;48.328;10.096;2022-08-07T01:34:32;13.90;99.90
45549;DHT22;31270;48.328;10.096;2022-08-07T01:36:58;13.90;99.90
45549;DHT22;31270;48.328;10.096;2022-08-07T01:39:25;13.80;99.90
45549;DHT22;31270;48.328;10.096;2022-08-07T01:41:52;13.70;99.90
45549;DHT22;31270;48.328;10.096;2022-08-07T01:44:18;13.70;99.90
45549;DHT22;31270;48.328;10.096;2022-08-07T01:46:44;13.70;99.90
45549;DHT22;31270;48.328;10.096;2022-08-07T01:49:10;13.70;99.90
45549;DHT22;31270;48.328;10.096;2022-08-07T01:51:37;13.70;99.90
45549;DHT22;31270;48.328;10.096;2022-08-07T01:54:07;13.70;99.90
45549;DHT22;31270;48.328;10.096;2022-08-07T01:56:53;13.60;99.90
45549;DHT22;31270;48.328;10.096;2022-08-07T01:59:25;13.50;99.90
45549;DHT22;31270;48.328;10.096;2022-08-07T02:02:22;13.50;99.90
45549;DHT22;31270;48.328;10.096;2022-08-07T02:04:53;13.60;99.90
45549;DHT22;31270;48.328;10.096;2022-08-07T02:07:23;13.60;99.90
45549;DHT22;31270;48.328;10.096;2022-08-07T02:09:51;13.60;99.90
45549;DHT22;31270;48.328;10.096;2022-08-07T02:12:18;13.60;99.90
45549;DHT22;31270;48.328;10.096;2022-08-07T02:14:47;13.50;99.90
45549;DHT22;31270;48.328;10.096;2022-08-07T02:17:16;13.50;99.90
45549;DHT22;31270;48.328;10.096;2022-08-07T02:19:45;13.50;99.90
45549;DHT22;31270;48.328;10.096;2022-08-07T02:22:12;13.60;99.90
45549;DHT22;31270;48.328;10.096;2022-08-07T02:24:41;13.60;99.90
45549;DHT22;31270;48.328;10.096;2022-08-07T02:27:07;13.50;99.90
45549;DHT22;31270;48.328;10.096;2022-08-07T02:29:34;13.60;99.90
45549;DHT22;31270;48.328;10.096;2022-08-07T02:32:01;13.60;99.90
45549;DHT22;31270;48.328;10.096;2022-08-07T02:34:29;13.60;99.90
45549;DHT22;31270;48.328;10.096;2022-08-07T02:36:56;13.60;99.90
45549;DHT22;31270;48.328;10.096;2022-08-07T02:39:23;13.60;99.90
45549;DHT22;31270;48.328;10.096;2022-08-07T02:41:51;13.60;99.90
45549;DHT22;31270;48.328;10.096;2022-08-07T02:44:17;13.60;99.90
45549;DHT22;31270;48.328;10.096;2022-08-07T02:46:44;13.60;99.90
45549;DHT22;31270;48.328;10.096;2022-08-07T02:49:12;13.60;99.90
45549;DHT22;31270;48.328;10.096;2022-08-07T02:51:39;13.60;99.90
45549;DHT22;31270;48.328;10.096;2022-08-07T02:54:08;13.60;99.90
45549;DHT22;31270;48.328;10.096;2022-08-07T02:56:37;13.70;99.90
45549;DHT22;31270;48.328;10.096;2022-08-07T02:59:07;13.60;99.90
45549;DHT22;31270;48.328;10.096;2022-08-07T03:01:35;13.60;99.90
45549;DHT22;31270;48.328;10.096;2022-08-07T03:04:04;13.60;99.90
45549;DHT22;31270;48.328;10.096;2022-08-07T03:06:32;13.70;99.90
45549;DHT22;31270;48.328;10.096;2022-08-07T03:09:00;13.60;99.90
45549;DHT22;31270;48.328;10.096;2022-08-07T03:11:26;13.60;99.90
45549;DHT22;31270;48.328;10.096;2022-08-07T03:13:52;13.50;99.90
45549;DHT22;31270;48.328;10.096;2022-08-07T03:16:19;13.50;99.90
45549;DHT22;31270;48.328;10.096;2022-08-07T03:18:45;13.50;99.90
45549;DHT22;31270;48.328;10.096;2022-08-07T03:21:11;13.50;99.90
45549;DHT22;31270;48.328;10.096;2022-08-07T03:23:37;13.50;99.90
45549;DHT22;31270;48.328;10.096;2022-08-07T03:26:04;13.40;99.90
45549;DHT22;31270;48.328;10.096;2022-08-07T03:28:31;13.40;99.90
45549;DHT22;31270;48.328;10.096;2022-08-07T03:31:01;13.40;99.90
45549;DHT22;31270;48.328;10.096;2022-08-07T03:33:58;13.40;99.90
45549;DHT22;31270;48.328;10.096;2022-08-07T03:36:25;13.30;99.90
45549;DHT22;31270;48.328;10.096;2022-08-07T03:38:54;13.30;99.90
45549;DHT22;31270;48.328;10.096;2022-08-07T03:41:21;13.30;99.90
45549;DHT22;31270;48.328;10.096;2022-08-07T03:43:47;13.40;99.90
45549;DHT22;31270;48.328;10.096;2022-08-07T03:46:13;13.40;99.90
45549;DHT22;31270;48.328;10.096;2022-08-07T03:48:40;13.30;99.90
45549;DHT22;31270;48.328;10.096;2022-08-07T03:51:07;13.20;99.90
45549;DHT22;31270;48.328;10.096;2022-08-07T03:53:32;13.20;99.90
45549;DHT22;31270;48.328;10.096;2022-08-07T03:55:59;13.20;99.90
45549;DHT22;31270;48.328;10.096;2022-08-07T03:58:26;13.20;99.90
45549;DHT22;31270;48.328;10.096;2022-08-07T04:00:55;13.20;99.90
45549;DHT22;31270;48.328;10.096;2022-08-07T04:03:21;13.10;99.90
45549;DHT22;31270;48.328;10.096;2022-08-07T04:05:47;13.10;99.90
45549;DHT22;31270;48.328;10.096;2022-08-07T04:08:14;13.10;99.90
45549;DHT22;31270;48.328;10.096;2022-08-07T04:10:40;13.10;99.90
45549;DHT22;31270;48.328;10.096;2022-08-07T04:13:06;13.10;99.90
45549;DHT22;31270;48.328;10.096;2022-08-07T04:15:32;13.10;99.90
45549;DHT22;31270;48.328;10.096;2022-08-07T04:18:00;13.10;99.90
45549;DHT22;31270;48.328;10.096;2022-08-07T04:20:26;13.10;99.90
45549;DHT22;31270;48.328;10.096;2022-08-07T04:22:53;13.20;99.90
45549;DHT22;31270;48.328;10.096;2022-08-07T04:25:21;13.10;99.90
45549;DHT22;31270;48.328;10.096;2022-08-07T04:27:47;13.30;99.90
45549;DHT22;31270;48.328;10.096;2022-08-07T04:30:12;13.20;99.90
45549;DHT22;31270;48.328;10.096;2022-08-07T04:32:38;13.20;99.90
45549;DHT22;31270;48.328;10.096;2022-08-07T04:35:05;13.30;99.90
45549;DHT22;31270;48.328;10.096;2022-08-07T04:37:32;13.30;99.90
45549;DHT22;31270;48.328;10.096;2022-08-07T04:39:58;13.30;99.90
45549;DHT22;31270;48.328;10.096;2022-08-07T04:42:24;13.30;99.90
45549;DHT22;31270;48.328;10.096;2022-08-07T04:44:54;13.40;99.90
45549;DHT22;31270;48.328;10.096;2022-08-07T04:47:34;13.40;99.90
45549;DHT22;31270;48.328;10.096;2022-08-07T04:53:05;13.50;99.90
45549;DHT22;31270;48.328;10.096;2022-08-07T04:55:54;13.60;99.90
45549;DHT22;31270;48.328;10.096;2022-08-07T05:01:01;13.70;99.90
45549;DHT22;31270;48.328;10.096;2022-08-07T05:03:51;13.80;99.90
45549;DHT22;31270;48.328;10.096;2022-08-07T05:07:00;13.80;99.90
45549;DHT22;31270;48.328;10.096;2022-08-07T05:09:44;14.00;99.90
45549;DHT22;31270;48.328;10.096;2022-08-07T05:12:16;14.00;99.90
45549;DHT22;31270;48.328;10.096;2022-08-07T05:14:46;14.10;99.90
45549;DHT22;31270;48.328;10.096;2022-08-07T05:17:15;14.10;99.90
45549;DHT22;31270;48.328;10.096;2022-08-07T05:19:46;14.20;99.90
45549;DHT22;31270;48.328;10.096;2022-08-07T05:22:15;14.20;99.90
45549;DHT22;31270;48.328;10.096;2022-08-07T05:24:42;14.30;99.90
45549;DHT22;31270;48.328;10.096;2022-08-07T05:27:13;14.20;99.90
45549;DHT22;31270;48.328;10.096;2022-08-07T05:29:42;14.50;99.90
45549;DHT22;31270;48.328;10.096;2022-08-07T05:32:08;14.40;99.90
45549;DHT22;31270;48.328;10.096;2022-08-07T05:34:39;14.70;99.90
45549;DHT22;31270;48.328;10.096;2022-08-07T05:37:06;14.80;99.90
45549;DHT22;31270;48.328;10.096;2022-08-07T05:39:34;14.80;99.90
45549;DHT22;31270;48.328;10.096;2022-08-07T05:42:00;14.90;99.90
45549;DHT22;31270;48.328;10.096;2022-08-07T05:44:27;15.00;99.90
45549;DHT22;31270;48.328;10.096;2022-08-07T05:46:54;15.10;99.90
45549;DHT22;31270;48.328;10.096;2022-08-07T05:49:21;15.20;99.90
45549;DHT22;31270;48.328;10.096;2022-08-07T05:51:47;15.20;99.90
45549;DHT22;31270;48.328;10.096;2022-08-07T05:54:14;15.30;99.90
45549;DHT22;31270;48.328;10.096;2022-08-07T05:56:41;15.50;99.90
45549;DHT22;31270;48.328;10.096;2022-08-07T05:59:15;15.60;99.90
45549;DHT22;31270;48.328;10.096;2022-08-07T06:01:42;15.80;99.90
45549;DHT22;31270;48.328;10.096;2022-08-07T06:04:09;15.90;99.90
45549;DHT22;31270;48.328;10.096;2022-08-07T06:06:35;15.90;99.90
45549;DHT22;31270;48.328;10.096;2022-08-07T06:09:02;15.90;99.90
45549;DHT22;31270;48.328;10.096;2022-08-07T06:11:28;16.00;99.90
45549;DHT22;31270;48.328;10.096;2022-08-07T06:13:54;16.20;99.90
45549;DHT22;31270;48.328;10.096;2022-08-07T06:16:22;16.30;99.90
45549;DHT22;31270;48.328;10.096;2022-08-07T06:18:48;16.40;99.90
45549;DHT22;31270;48.328;10.096;2022-08-07T06:21:14;16.60;99.90
45549;DHT22;31270;48.328;10.096;2022-08-07T06:23:40;16.60;99.90
45549;DHT22;31270;48.328;10.096;2022-08-07T06:26:10;16.70;99.90
45549;DHT22;31270;48.328;10.096;2022-08-07T06:28:50;16.80;99.90
45549;DHT22;31270;48.328;10.096;2022-08-07T06:31:16;16.80;99.90
45549;DHT22;31270;48.328;10.096;2022-08-07T06:33:43;16.90;99.90
45549;DHT22;31270;48.328;10.096;2022-08-07T06:36:10;16.90;99.90
45549;DHT22;31270;48.328;10.096;2022-08-07T06:38:36;17.10;99.90
45549;DHT22;31270;48.328;10.096;2022-08-07T06:41:08;17.20;99.90
45549;DHT22;31270;48.328;10.096;2022-08-07T06:43:36;17.40;99.90
45549;DHT22;31270;48.328;10.096;2022-08-07T06:46:03;17.40;99.90
45549;DHT22;31270;48.328;10.096;2022-08-07T06:48:29;17.50;99.90
45549;DHT22;31270;48.328;10.096;2022-08-07T06:50:58;17.40;99.90
45549;DHT22;31270;48.328;10.096;2022-08-07T06:53:25;17.50;99.90
45549;DHT22;31270;48.328;10.096;2022-08-07T06:55:53;17.40;99.90
45549;DHT22;31270;48.328;10.096;2022-08-07T06:58:20;17.40;99.90
45549;DHT22;31270;48.328;10.096;2022-08-07T07:00:47;17.30;99.90
45549;DHT22;31270;48.328;10.096;2022-08-07T07:03:13;17.40;99.90
45549;DHT22;31270;48.328;10.096;2022-08-07T07:05:40;17.40;99.90
45549;DHT22;31270;48.328;10.096;2022-08-07T07:08:06;17.30;99.90
45549;DHT22;31270;48.328;10.096;2022-08-07T07:10:34;17.40;99.90
45549;DHT22;31270;48.328;10.096;2022-08-07T07:13:22;17.50;99.90
45549;DHT22;31270;48.328;10.096;2022-08-07T07:15:56;17.50;99.90
45549;DHT22;31270;48.328;10.096;2022-08-07T07:18:30;17.70;99.90
45549;DHT22;31270;48.328;10.096;2022-08-07T07:21:04;17.90;99.90
45549;DHT22;31270;48.328;10.096;2022-08-07T07:23:31;17.90;99.90
45549;DHT22;31270;48.328;10.096;2022-08-07T07:26:01;18.00;99.90
45549;DHT22;31270;48.328;10.096;2022-08-07T07:28:44;18.10;99.90
45549;DHT22;31270;48.328;10.096;2022-08-07T07:31:32;18.10;99.90
45549;DHT22;31270;48.328;10.096;2022-08-07T07:34:05;18.20;99.90
45549;DHT22;31270;48.328;10.096;2022-08-07T07:36:32;18.30;99.90
45549;DHT22;31270;48.328;10.096;2022-08-07T07:39:00;18.50;99.90
45549;DHT22;31270;48.328;10.096;2022-08-07T07:41:28;18.60;99.90
45549;DHT22;31270;48.328;10.096;2022-08-07T07:43:54;18.90;99.90
45549;DHT22;31270;48.328;10.096;2022-08-07T07:46:21;19.10;99.90
45549;DHT22;31270;48.328;10.096;2022-08-07T07:48:50;19.40;99.90
45549;DHT22;31270;48.328;10.096;2022-08-07T07:51:18;19.60;99.90
45549;DHT22;31270;48.328;10.096;2022-08-07T07:53:46;19.80;99.90
45549;DHT22;31270;48.328;10.096;2022-08-07T07:56:13;19.80;99.90
45549;DHT22;31270;48.328;10.096;2022-08-07T07:58:40;19.80;99.90
45549;DHT22;31270;48.328;10.096;2022-08-07T08:01:10;19.80;99.90
45549;DHT22;31270;48.328;10.096;2022-08-07T08:03:37;19.90;99.90
45549;DHT22;31270;48.328;10.096;2022-08-07T08:06:05;19.90;99.90
45549;DHT22;31270;48.328;10.096;2022-08-07T08:08:33;20.10;99.90
45549;DHT22;31270;48.328;10.096;2022-08-07T08:11:00;20.50;99.90
45549;DHT22;31270;48.328;10.096;2022-08-07T08:13:28;20.40;99.90
45549;DHT22;31270;48.328;10.096;2022-08-07T08:15:54;20.60;99.90
45549;DHT22;31270;48.328;10.096;2022-08-07T08:18:24;20.80;99.90
45549;DHT22;31270;48.328;10.096;2022-08-07T08:20:51;21.00;99.90
45549;DHT22;31270;48.328;10.096;2022-08-07T08:23:18;21.10;99.90
45549;DHT22;31270;48.328;10.096;2022-08-07T08:26:04;21.00;99.90
45549;DHT22;31270;48.328;10.096;2022-08-07T08:28:50;21.20;99.90
45549;DHT22;31270;48.328;10.096;2022-08-07T08:31:29;21.40;99.90
45549;DHT22;31270;48.328;10.096;2022-08-07T08:33:59;21.40;99.90
45549;DHT22;31270;48.328;10.096;2022-08-07T08:36:28;21.60;99.90
45549;DHT22;31270;48.328;10.096;2022-08-07T08:38:56;21.70;99.90
45549;DHT22;31270;48.328;10.096;2022-08-07T08:44:27;21.90;99.90
45549;DHT22;31270;48.328;10.096;2022-08-07T08:47:28;21.80;99.90
45549;DHT22;31270;48.328;10.096;2022-08-07T08:50:11;21.70;99.90
45549;DHT22;31270;48.328;10.096;2022-08-07T08:53:03;21.90;99.90
45549;DHT22;31270;48.328;10.096;2022-08-07T08:55:36;22.20;99.90
45549;DHT22;31270;48.328;10.096;2022-08-07T08:58:11;22.00;99.90
45549;DHT22;31270;48.328;10.096;2022-08-07T09:00:43;22.00;99.90
45549;DHT22;31270;48.328;10.096;2022-08-07T09:03:29;21.70;99.90
45549;DHT22;31270;48.328;10.096;2022-08-07T09:06:10;22.00;99.90
45549;DHT22;31270;48.328;10.096;2022-08-07T09:09:11;22.20;99.90
45549;DHT22;31270;48.328;10.096;2022-08-07T09:19:53;22.50;99.90
45549;DHT22;31270;48.328;10.096;2022-08-07T09:25:10;22.70;99.90
45549;DHT22;31270;48.328;10.096;2022-08-07T09:30:16;23.10;99.90
45549;DHT22;31270;48.328;10.096;2022-08-07T09:35:49;23.30;99.90
45549;DHT22;31270;48.328;10.096;2022-08-07T09:38:59;23.30;99.90
45549;DHT22;31270;48.328;10.096;2022-08-07T09:41:53;23.40;99.90
45549;DHT22;31270;48.328;10.096;2022-08-07T09:44:40;23.60;99.90
45549;DHT22;31270;48.328;10.096;2022-08-07T09:47:32;24.00;99.90
45549;DHT22;31270;48.328;10.096;2022-08-07T09:52:54;24.00;99.90
45549;DHT22;31270;48.328;10.096;2022-08-07T09:58:28;23.90;99.90
45549;DHT22;31270;48.328;10.096;2022-08-07T10:06:30;23.80;99.90
45549;DHT22;31270;48.328;10.096;2022-08-07T10:20:44;24.30;99.90
45549;DHT22;31270;48.328;10.096;2022-08-07T10:23:39;24.20;99.90
45549;DHT22;31270;48.328;10.096;2022-08-07T10:26:18;24.40;99.90
45549;DHT22;31270;48.328;10.096;2022-08-07T10:29:01;24.60;99.90
45549;DHT22;31270;48.328;10.096;2022-08-07T10:40:46;24.90;99.90
45549;DHT22;31270;48.328;10.096;2022-08-07T10:43:36;25.30;99.90
45549;DHT22;31270;48.328;10.096;2022-08-07T10:46:28;25.60;99.90
45549;DHT22;31270;48.328;10.096;2022-08-07T10:49:21;25.50;99.90
45549;DHT22;31270;48.328;10.096;2022-08-07T10:52:14;25.70;99.40
45549;DHT22;31270;48.328;10.096;2022-08-07T10:54:55;25.70;98.40
45549;DHT22;31270;48.328;10.096;2022-08-07T10:57:26;25.60;98.10
45549;DHT22;31270;48.328;10.096;2022-08-07T11:02:39;25.80;99.40
45549;DHT22;31270;48.328;10.096;2022-08-07T11:13:31;26.10;97.40
45549;DHT22;31270;48.328;10.096;2022-08-07T11:16:06;25.70;98.10
45549;DHT22;31270;48.328;10.096;2022-08-07T11:23:56;25.90;96.90
45549;DHT22;31270;48.328;10.096;2022-08-07T11:29:46;26.00;97.40
45549;DHT22;31270;48.328;10.096;2022-08-07T11:32:22;25.50;97.70
45549;DHT22;31270;48.328;10.096;2022-08-07T11:34:56;25.40;98.60
45549;DHT22;31270;48.328;10.096;2022-08-07T11:37:49;25.20;97.90
45549;DHT22;31270;48.328;10.096;2022-08-07T11:40:50;25.40;98.40
45549;DHT22;31270;48.328;10.096;2022-08-07T11:51:32;25.90;97.60
45549;DHT22;31270;48.328;10.096;2022-08-07T12:00:18;26.80;97.80
45549;DHT22;31270;48.328;10.096;2022-08-07T12:05:42;27.40;95.70
45549;DHT22;31270;48.328;10.096;2022-08-07T12:10:47;27.40;95.60
45549;DHT22;31270;48.328;10.096;2022-08-07T12:13:28;27.60;95.80
45549;DHT22;31270;48.328;10.096;2022-08-07T12:16:11;27.70;95.70
45549;DHT22;31270;48.328;10.096;2022-08-07T12:21:39;27.60;95.20
45549;DHT22;31270;48.328;10.096;2022-08-07T12:24:13;27.90;95.20
45549;DHT22;31270;48.328;10.096;2022-08-07T12:30:02;27.60;93.50
45549;DHT22;31270;48.328;10.096;2022-08-07T12:33:01;27.30;94.00
45549;DHT22;31270;48.328;10.096;2022-08-07T12:35:31;27.20;93.80
45549;DHT22;31270;48.328;10.096;2022-08-07T12:37:58;27.30;94.70
45549;DHT22;31270;48.328;10.096;2022-08-07T12:40:28;27.20;93.60
45549;DHT22;31270;48.328;10.096;2022-08-07T12:42:56;27.60;94.80
45549;DHT22;31270;48.328;10.096;2022-08-07T12:45:26;27.60;92.90
45549;DHT22;31270;48.328;10.096;2022-08-07T12:50:57;26.90;92.40
45549;DHT22;31270;48.328;10.096;2022-08-07T12:53:30;26.80;92.50
45549;DHT22;31270;48.328;10.096;2022-08-07T12:56:09;27.10;94.00
45549;DHT22;31270;48.328;10.096;2022-08-07T12:58:37;27.50;93.80
45549;DHT22;31270;48.328;10.096;2022-08-07T13:01:07;27.30;92.40
45549;DHT22;31270;48.328;10.096;2022-08-07T13:04:08;27.10;91.90
45549;DHT22;31270;48.328;10.096;2022-08-07T13:09:56;26.90;92.70
45549;DHT22;31270;48.328;10.096;2022-08-07T13:12:42;27.00;92.50
45549;DHT22;31270;48.328;10.096;2022-08-07T13:20:39;27.10;91.70
45549;DHT22;31270;48.328;10.096;2022-08-07T13:23:17;27.20;91.50
45549;DHT22;31270;48.328;10.096;2022-08-07T13:28:20;27.00;91.10
45549;DHT22;31270;48.328;10.096;2022-08-07T13:30:53;27.00;91.80
45549;DHT22;31270;48.328;10.096;2022-08-07T13:36:04;27.10;91.50
45549;DHT22;31270;48.328;10.096;2022-08-07T13:38:43;27.10;91.00
45549;DHT22;31270;48.328;10.096;2022-08-07T13:41:32;26.80;91.10
45549;DHT22;31270;48.328;10.096;2022-08-07T13:44:02;26.90;90.30
45549;DHT22;31270;48.328;10.096;2022-08-07T13:46:32;26.70;90.90
45549;DHT22;31270;48.328;10.096;2022-08-07T13:49:00;26.70;90.10
45549;DHT22;31270;48.328;10.096;2022-08-07T13:51:28;26.70;91.20
45549;DHT22;31270;48.328;10.096;2022-08-07T13:53:59;26.90;92.70
45549;DHT22;31270;48.328;10.096;2022-08-07T13:56:26;27.10;90.90
45549;DHT22;31270;48.328;10.096;2022-08-07T13:58:54;27.20;90.30
45549;DHT22;31270;48.328;10.096;2022-08-07T14:01:29;27.00;91.00
45549;DHT22;31270;48.328;10.096;2022-08-07T14:03:55;26.80;92.10
45549;DHT22;31270;48.328;10.096;2022-08-07T14:06:22;26.80;90.90
45549;DHT22;31270;48.328;10.096;2022-08-07T14:08:55;26.80;90.70
45549;DHT22;31270;48.328;10.096;2022-08-07T14:11:23;26.60;91.30
45549;DHT22;31270;48.328;10.096;2022-08-07T14:13:53;26.70;91.50
45549;DHT22;31270;48.328;10.096;2022-08-07T14:16:24;26.70;91.40
45549;DHT22;31270;48.328;10.096;2022-08-07T14:18:52;26.50;90.50
45549;DHT22;31270;48.328;10.096;2022-08-07T14:21:27;26.20;90.70
45549;DHT22;31270;48.328;10.096;2022-08-07T14:24:03;26.10;91.30
45549;DHT22;31270;48.328;10.096;2022-08-07T14:26:36;26.10;92.40
45549;DHT22;31270;48.328;10.096;2022-08-07T14:29:04;26.20;91.00
45549;DHT22;31270;48.328;10.096;2022-08-07T14:31:33;26.30;90.30
45549;DHT22;31270;48.328;10.096;2022-08-07T14:33:59;26.30;91.00
45549;DHT22;31270;48.328;10.096;2022-08-07T14:36:25;26.20;90.70
45549;DHT22;31270;48.328;10.096;2022-08-07T14:38:51;26.30;90.80
45549;DHT22;31270;48.328;10.096;2022-08-07T14:41:25;26.00;89.40
45549;DHT22;31270;48.328;10.096;2022-08-07T14:43:52;25.90;90.30
45549;DHT22;31270;48.328;10.096;2022-08-07T14:46:20;25.90;88.90
45549;DHT22;31270;48.328;10.096;2022-08-07T14:48:47;26.00;92.00
45549;DHT22;31270;48.328;10.096;2022-08-07T14:51:20;26.10;90.60
45549;DHT22;31270;48.328;10.096;2022-08-07T14:53:49;25.80;89.60
45549;DHT22;31270;48.328;10.096;2022-08-07T14:56:19;25.80;90.10
45549;DHT22;31270;48.328;10.096;2022-08-07T14:58:50;25.80;90.20
45549;DHT22;31270;48.328;10.096;2022-08-07T15:01:18;25.90;89.30
45549;DHT22;31270;48.328;10.096;2022-08-07T15:03:44;25.70;88.00
45549;DHT22;31270;48.328;10.096;2022-08-07T15:06:13;25.60;89.70
45549;DHT22;31270;48.328;10.096;2022-08-07T15:08:41;25.60;90.50
45549;DHT22;31270;48.328;10.096;2022-08-07T15:11:13;25.60;90.00
45549;DHT22;31270;48.328;10.096;2022-08-07T15:14:07;25.50;89.80
45549;DHT22;31270;48.328;10.096;2022-08-07T15:16:51;25.30;89.30
45549;DHT22;31270;48.328;10.096;2022-08-07T15:19:18;25.20;89.70
45549;DHT22;31270;48.328;10.096;2022-08-07T15:21:48;25.10;90.30
45549;DHT22;31270;48.328;10.096;2022-08-07T15:24:27;25.00;89.70
45549;DHT22;31270;48.328;10.096;2022-08-07T15:29:35;25.00;90.30
45549;DHT22;31270;48.328;10.096;2022-08-07T15:32:03;25.00;89.80
45549;DHT22;31270;48.328;10.096;2022-08-07T15:34:42;25.00;90.20
45549;DHT22;31270;48.328;10.096;2022-08-07T15:37:08;24.90;90.20
45549;DHT22;31270;48.328;10.096;2022-08-07T15:39:38;24.70;90.60
45549;DHT22;31270;48.328;10.096;2022-08-07T15:42:06;24.70;90.90
45549;DHT22;31270;48.328;10.096;2022-08-07T15:44:47;24.70;91.00
45549;DHT22;31270;48.328;10.096;2022-08-07T15:47:16;24.70;92.00
45549;DHT22;31270;48.328;10.096;2022-08-07T15:49:45;24.70;91.60
45549;DHT22;31270;48.328;10.096;2022-08-07T15:52:17;24.80;91.90
45549;DHT22;31270;48.328;10.096;2022-08-07T15:54:45;24.80;91.80
45549;DHT22;31270;48.328;10.096;2022-08-07T15:57:18;24.90;91.00
45549;DHT22;31270;48.328;10.096;2022-08-07T15:59:44;24.90;90.50
45549;DHT22;31270;48.328;10.096;2022-08-07T16:02:20;24.70;90.60
45549;DHT22;31270;48.328;10.096;2022-08-07T16:04:48;24.80;91.90
45549;DHT22;31270;48.328;10.096;2022-08-07T16:07:19;24.70;91.20
45549;DHT22;31270;48.328;10.096;2022-08-07T16:09:52;24.50;91.70
45549;DHT22;31270;48.328;10.096;2022-08-07T16:20:57;24.60;91.50
45549;DHT22;31270;48.328;10.096;2022-08-07T16:23:31;24.50;92.20
45549;DHT22;31270;48.328;10.096;2022-08-07T16:26:16;24.40;91.40
45549;DHT22;31270;48.328;10.096;2022-08-07T16:31:46;24.50;91.60
45549;DHT22;31270;48.328;10.096;2022-08-07T16:34:43;24.30;92.30
45549;DHT22;31270;48.328;10.096;2022-08-07T16:42:44;24.20;92.10
45549;DHT22;31270;48.328;10.096;2022-08-07T16:50:44;24.10;92.10
45549;DHT22;31270;48.328;10.096;2022-08-07T16:56:19;24.00;91.90
45549;DHT22;31270;48.328;10.096;2022-08-07T16:58:59;24.00;92.10
45549;DHT22;31270;48.328;10.096;2022-08-07T17:04:23;23.80;92.10
45549;DHT22;31270;48.328;10.096;2022-08-07T17:09:30;23.80;92.70
45549;DHT22;31270;48.328;10.096;2022-08-07T17:12:03;23.80;92.60
45549;DHT22;31270;48.328;10.096;2022-08-07T17:14:55;23.90;92.80
45549;DHT22;31270;48.328;10.096;2022-08-07T17:20:21;23.90;92.20
45549;DHT22;31270;48.328;10.096;2022-08-07T17:25:33;23.60;92.30
45549;DHT22;31270;48.328;10.096;2022-08-07T17:28:36;23.60;91.90
45549;DHT22;31270;48.328;10.096;2022-08-07T17:34:21;23.70;91.90
45549;DHT22;31270;48.328;10.096;2022-08-07T17:36:52;23.60;92.10
45549;DHT22;31270;48.328;10.096;2022-08-07T17:39:45;23.50;92.30
45549;DHT22;31270;48.328;10.096;2022-08-07T17:44:58;23.30;92.90
45549;DHT22;31270;48.328;10.096;2022-08-07T17:50:09;23.30;94.20
45549;DHT22;31270;48.328;10.096;2022-08-07T17:55:15;23.10;94.80
45549;DHT22;31270;48.328;10.096;2022-08-07T18:00:25;22.90;94.80
45549;DHT22;31270;48.328;10.096;2022-08-07T18:03:06;22.90;94.90
45549;DHT22;31270;48.328;10.096;2022-08-07T18:05:44;22.80;94.60
45549;DHT22;31270;48.328;10.096;2022-08-07T18:10:49;22.70;95.10
45549;DHT22;31270;48.328;10.096;2022-08-07T18:13:44;22.60;95.50
45549;DHT22;31270;48.328;10.096;2022-08-07T18:16:30;22.60;95.70
45549;DHT22;31270;48.328;10.096;2022-08-07T18:21:45;22.50;96.20
45549;DHT22;31270;48.328;10.096;2022-08-07T18:30:03;22.50;96.30
45549;DHT22;31270;48.328;10.096;2022-08-07T18:35:20;22.30;96.60
45549;DHT22;31270;48.328;10.096;2022-08-07T18:38:16;22.10;96.00
45549;DHT22;31270;48.328;10.096;2022-08-07T18:41:13;21.90;96.30
45549;DHT22;31270;48.328;10.096;2022-08-07T18:44:09;21.80;96.90
45549;DHT22;31270;48.328;10.096;2022-08-07T18:58:21;21.40;97.90
45549;DHT22;31270;48.328;10.096;2022-08-07T19:01:04;21.30;98.30
45549;DHT22;31270;48.328;10.096;2022-08-07T19:03:57;21.20;98.30